createdAt,value
2019-01-30T00:00:01.166Z,40
2019-01-30T00:01:00.102Z,40
2019-01-30T00:02:00.089Z,40
2019-01-30T00:03:00.072Z,40
2019-01-30T00:04:00.047Z,40
2019-01-30T00:05:00.190Z,40
2019-01-30T00:06:00.059Z,40
2019-01-30T00:06:59.994Z,40
2019-01-30T00:07:59.980Z,40
2019-01-30T00:08:59.963Z,40
2019-01-30T00:09:59.946Z,40
2019-01-30T00:10:59.926Z,40
2019-01-30T00:11:59.909Z,40
2019-01-30T00:12:59.890Z,40
2019-01-30T00:13:59.627Z,40
2019-01-30T00:14:59.854Z,40
2019-01-30T00:16:03.779Z,40
2019-01-30T00:16:59.816Z,40
2019-01-30T00:17:59.800Z,40
2019-01-30T00:18:59.780Z,40
2019-01-30T00:19:59.763Z,40
2019-01-30T00:20:59.743Z,40
2019-01-30T00:21:59.727Z,40
2019-01-30T00:22:59.705Z,40
2019-01-30T00:23:59.694Z,40
2019-01-30T00:24:59.680Z,40
2019-01-30T00:25:59.653Z,40
2019-01-30T00:26:59.641Z,40
2019-01-30T00:27:59.622Z,40
2019-01-30T00:28:59.601Z,40
2019-01-30T00:30:08.912Z,40
2019-01-30T00:30:59.562Z,40
2019-01-30T00:31:59.552Z,40
2019-01-30T00:32:59.533Z,40
2019-01-30T00:33:59.512Z,40
2019-01-30T00:34:59.490Z,36
2019-01-30T00:35:59.483Z,40
2019-01-30T00:36:59.456Z,40
2019-01-30T00:38:00.994Z,36
2019-01-30T00:38:59.421Z,36
2019-01-30T00:39:59.408Z,40
2019-01-30T00:40:59.387Z,40
2019-01-30T00:41:59.368Z,40
2019-01-30T00:42:59.347Z,40
2019-01-30T00:43:59.329Z,40
2019-01-30T00:44:59.315Z,40
2019-01-30T00:45:59.292Z,40
2019-01-30T00:46:59.276Z,40
2019-01-30T00:47:59.265Z,40
2019-01-30T00:48:59.240Z,40
2019-01-30T00:49:59.228Z,36
2019-01-30T00:50:59.203Z,36
2019-01-30T00:51:59.209Z,36
2019-01-30T00:52:59.174Z,36
2019-01-30T00:53:59.150Z,36
2019-01-30T00:54:59.131Z,36
2019-01-30T00:55:59.118Z,40
2019-01-30T00:56:59.094Z,40
2019-01-30T00:57:59.081Z,40
2019-01-30T00:58:59.061Z,40
2019-01-30T00:59:59.039Z,36
2019-01-30T01:01:00.667Z,40
2019-01-30T01:01:59.008Z,36
2019-01-30T01:02:59.036Z,40
2019-01-30T01:03:58.973Z,40
2019-01-30T01:04:58.956Z,40
2019-01-30T01:05:58.946Z,40
2019-01-30T01:06:58.918Z,40
2019-01-30T01:07:58.899Z,40
2019-01-30T01:08:58.877Z,40
2019-01-30T01:09:58.862Z,40
2019-01-30T01:10:58.934Z,40
2019-01-30T01:11:58.821Z,40
2019-01-30T01:12:58.807Z,40
2019-01-30T01:13:58.790Z,40
2019-01-30T01:14:58.778Z,40
2019-01-30T01:15:58.771Z,40
2019-01-30T01:16:58.585Z,40
2019-01-30T01:17:58.711Z,40
2019-01-30T01:18:58.699Z,40
2019-01-30T01:19:58.685Z,40
2019-01-30T01:20:58.763Z,40
2019-01-30T01:21:58.657Z,40
2019-01-30T01:22:58.631Z,40
2019-01-30T01:23:58.609Z,40
2019-01-30T01:24:58.585Z,40
2019-01-30T01:25:58.567Z,40
2019-01-30T01:26:58.551Z,40
2019-01-30T01:27:58.536Z,40
2019-01-30T01:28:58.530Z,40
2019-01-30T01:29:58.512Z,40
2019-01-30T01:30:58.481Z,40
2019-01-30T01:31:58.461Z,40
2019-01-30T01:32:58.442Z,40
2019-01-30T01:33:58.423Z,40
2019-01-30T01:34:58.408Z,40
2019-01-30T01:35:58.387Z,40
2019-01-30T01:36:58.367Z,40
2019-01-30T01:37:58.359Z,40
2019-01-30T01:38:58.336Z,40
2019-01-30T01:39:58.323Z,40
2019-01-30T01:40:58.301Z,40
2019-01-30T01:41:58.277Z,40
2019-01-30T01:42:58.268Z,40
2019-01-30T01:43:58.008Z,40
2019-01-30T01:44:58.263Z,40
2019-01-30T01:45:58.214Z,40
2019-01-30T01:46:58.188Z,40
2019-01-30T01:47:58.170Z,40
2019-01-30T01:48:58.156Z,40
2019-01-30T01:49:58.140Z,40
2019-01-30T01:50:58.111Z,40
2019-01-30T01:51:58.093Z,40
2019-01-30T01:52:58.075Z,40
2019-01-30T01:53:58.065Z,40
2019-01-30T01:54:58.041Z,40
2019-01-30T01:55:58.019Z,40
2019-01-30T01:56:58.006Z,40
2019-01-30T01:57:57.988Z,40
2019-01-30T01:58:57.965Z,40
2019-01-30T01:59:57.950Z,40
2019-01-30T02:00:57.926Z,40
2019-01-30T02:01:57.911Z,40
2019-01-30T02:02:57.890Z,40
2019-01-30T02:03:57.873Z,40
2019-01-30T02:04:57.858Z,40
2019-01-30T02:05:57.837Z,40
2019-01-30T02:06:57.818Z,40
2019-01-30T02:07:57.802Z,40
2019-01-30T02:08:57.784Z,40
2019-01-30T02:09:57.762Z,40
2019-01-30T02:10:57.506Z,40
2019-01-30T02:11:57.744Z,40
2019-01-30T02:12:57.709Z,40
2019-01-30T02:13:57.702Z,40
2019-01-30T02:14:57.676Z,40
2019-01-30T02:15:57.656Z,40
2019-01-30T02:16:57.636Z,40
2019-01-30T02:17:57.625Z,40
2019-01-30T02:18:57.600Z,40
2019-01-30T02:19:57.583Z,40
2019-01-30T02:20:57.571Z,40
2019-01-30T02:21:57.549Z,40
2019-01-30T02:22:57.529Z,40
2019-01-30T02:23:57.521Z,40
2019-01-30T02:24:57.488Z,40
2019-01-30T02:25:57.473Z,40
2019-01-30T02:26:57.459Z,40
2019-01-30T02:27:57.436Z,40
2019-01-30T02:28:57.413Z,40
2019-01-30T02:29:57.408Z,40
2019-01-30T02:30:57.385Z,40
2019-01-30T02:31:57.375Z,40
2019-01-30T02:32:57.355Z,40
2019-01-30T02:33:57.330Z,40
2019-01-30T02:34:57.331Z,40
2019-01-30T02:35:57.291Z,40
2019-01-30T02:36:57.285Z,40
2019-01-30T02:37:57.251Z,40
2019-01-30T02:38:57.237Z,40
2019-01-30T02:39:57.222Z,40
2019-01-30T02:40:57.194Z,40
2019-01-30T02:41:57.186Z,40
2019-01-30T02:42:57.169Z,40
2019-01-30T02:43:57.177Z,40
2019-01-30T02:44:57.127Z,40
2019-01-30T02:45:57.110Z,40
2019-01-30T02:46:57.087Z,40
2019-01-30T02:47:57.088Z,40
2019-01-30T02:48:57.055Z,40
2019-01-30T02:49:57.030Z,40
2019-01-30T02:50:57.022Z,40
2019-01-30T02:51:57.003Z,40
2019-01-30T02:52:57.084Z,40
2019-01-30T02:53:56.961Z,40
2019-01-30T02:54:56.942Z,40
2019-01-30T02:55:56.923Z,40
2019-01-30T02:56:56.908Z,40
2019-01-30T02:57:56.906Z,40
2019-01-30T02:58:56.867Z,40
2019-01-30T02:59:56.853Z,40
2019-01-30T03:01:06.326Z,40
2019-01-30T03:01:56.823Z,40
2019-01-30T03:02:56.814Z,40
2019-01-30T03:03:56.775Z,40
2019-01-30T03:04:56.829Z,40
2019-01-30T03:05:56.764Z,40
2019-01-30T03:06:56.736Z,40
2019-01-30T03:07:56.743Z,40
2019-01-30T03:08:56.683Z,40
2019-01-30T03:09:56.716Z,40
2019-01-30T03:10:56.648Z,40
2019-01-30T03:11:56.631Z,40
2019-01-30T03:12:56.610Z,40
2019-01-30T03:13:56.590Z,40
2019-01-30T03:14:56.592Z,40
2019-01-30T03:15:56.551Z,40
2019-01-30T03:16:56.534Z,40
2019-01-30T03:17:56.519Z,40
2019-01-30T03:18:56.602Z,40
2019-01-30T03:19:56.475Z,40
2019-01-30T03:20:56.476Z,40
2019-01-30T03:21:56.441Z,40
2019-01-30T03:22:56.422Z,40
2019-01-30T03:23:56.403Z,40
2019-01-30T03:24:56.400Z,40
2019-01-30T03:25:56.370Z,40
2019-01-30T03:26:56.349Z,40
2019-01-30T03:27:56.351Z,40
2019-01-30T03:28:56.324Z,40
2019-01-30T03:29:56.304Z,40
2019-01-30T03:30:56.287Z,40
2019-01-30T03:31:56.281Z,40
2019-01-30T03:32:56.273Z,40
2019-01-30T03:33:56.218Z,40
2019-01-30T03:34:56.202Z,40
2019-01-30T03:35:56.195Z,40
2019-01-30T03:36:56.250Z,40
2019-01-30T03:37:56.155Z,40
2019-01-30T03:38:56.138Z,40
2019-01-30T03:39:56.134Z,40
2019-01-30T03:40:56.090Z,40
2019-01-30T03:41:56.079Z,40
2019-01-30T03:42:56.083Z,40
2019-01-30T03:43:56.037Z,40
2019-01-30T03:44:56.020Z,40
2019-01-30T03:45:56.089Z,40
2019-01-30T03:46:55.979Z,40
2019-01-30T03:47:56.039Z,40
2019-01-30T03:48:55.947Z,40
2019-01-30T03:49:55.932Z,40
2019-01-30T03:50:55.916Z,40
2019-01-30T03:51:55.884Z,40
2019-01-30T03:52:55.879Z,40
2019-01-30T03:53:55.848Z,40
2019-01-30T03:54:55.836Z,40
2019-01-30T03:55:55.820Z,40
2019-01-30T03:56:55.797Z,40
2019-01-30T03:57:55.790Z,40
2019-01-30T03:58:55.767Z,40
2019-01-30T03:59:55.743Z,40
2019-01-30T04:00:55.723Z,40
2019-01-30T04:01:55.705Z,40
2019-01-30T04:02:55.691Z,40
2019-01-30T04:03:55.666Z,40
2019-01-30T04:04:55.658Z,40
2019-01-30T04:05:55.797Z,40
2019-01-30T04:06:55.621Z,40
2019-01-30T04:07:55.618Z,40
2019-01-30T04:08:55.599Z,40
2019-01-30T04:09:55.559Z,40
2019-01-30T04:10:55.538Z,40
2019-01-30T04:11:55.517Z,40
2019-01-30T04:12:55.666Z,40
2019-01-30T04:13:55.492Z,40
2019-01-30T04:14:55.469Z,40
2019-01-30T04:15:55.468Z,40
2019-01-30T04:16:55.428Z,40
2019-01-30T04:17:55.408Z,40
2019-01-30T04:18:55.393Z,40
2019-01-30T04:19:55.377Z,40
2019-01-30T04:20:55.270Z,40
2019-01-30T04:21:55.347Z,40
2019-01-30T04:22:55.345Z,40
2019-01-30T04:23:55.316Z,40
2019-01-30T04:24:55.287Z,40
2019-01-30T04:25:55.261Z,40
2019-01-30T04:26:55.247Z,40
2019-01-30T04:27:55.209Z,40
2019-01-30T04:28:55.202Z,40
2019-01-30T04:29:55.199Z,40
2019-01-30T04:30:55.172Z,40
2019-01-30T04:31:55.155Z,40
2019-01-30T04:32:55.132Z,40
2019-01-30T04:33:55.107Z,40
2019-01-30T04:34:55.100Z,40
2019-01-30T04:35:55.078Z,40
2019-01-30T04:36:55.072Z,40
2019-01-30T04:37:55.061Z,40
2019-01-30T04:38:55.029Z,40
2019-01-30T04:39:54.998Z,40
2019-01-30T04:40:54.982Z,40
2019-01-30T04:41:54.720Z,40
2019-01-30T04:42:54.946Z,40
2019-01-30T04:43:54.928Z,40
2019-01-30T04:44:54.915Z,40
2019-01-30T04:45:54.892Z,40
2019-01-30T04:46:54.889Z,40
2019-01-30T04:47:54.866Z,40
2019-01-30T04:48:54.835Z,40
2019-01-30T04:49:54.858Z,40
2019-01-30T04:50:54.905Z,40
2019-01-30T04:51:54.780Z,40
2019-01-30T04:52:54.770Z,40
2019-01-30T04:53:54.741Z,40
2019-01-30T04:54:54.725Z,40
2019-01-30T04:55:54.703Z,40
2019-01-30T04:56:54.454Z,40
2019-01-30T04:57:54.691Z,40
2019-01-30T04:58:54.651Z,40
2019-01-30T04:59:54.644Z,40
2019-01-30T05:00:54.617Z,40
2019-01-30T05:01:57.122Z,40
2019-01-30T05:02:54.594Z,40
2019-01-30T05:03:54.552Z,40
2019-01-30T05:04:54.550Z,40
2019-01-30T05:05:54.523Z,40
2019-01-30T05:06:54.266Z,40
2019-01-30T05:07:54.556Z,40
2019-01-30T05:08:55.983Z,40
2019-01-30T05:09:54.447Z,40
2019-01-30T05:10:54.428Z,40
2019-01-30T05:11:54.415Z,40
2019-01-30T05:12:54.409Z,40
2019-01-30T05:13:54.370Z,40
2019-01-30T05:14:54.375Z,40
2019-01-30T05:15:54.333Z,40
2019-01-30T05:16:54.318Z,40
2019-01-30T05:17:54.313Z,40
2019-01-30T05:18:54.293Z,40
2019-01-30T05:19:54.259Z,40
2019-01-30T05:20:54.242Z,40
2019-01-30T05:21:54.224Z,40
2019-01-30T05:22:54.230Z,40
2019-01-30T05:23:54.185Z,40
2019-01-30T05:24:54.163Z,40
2019-01-30T05:25:54.154Z,40
2019-01-30T05:26:54.259Z,40
2019-01-30T05:27:54.125Z,40
2019-01-30T05:28:54.098Z,40
2019-01-30T05:29:54.075Z,40
2019-01-30T05:30:54.062Z,40
2019-01-30T05:32:05.564Z,40
2019-01-30T05:32:54.031Z,40
2019-01-30T05:33:54.003Z,40
2019-01-30T05:34:53.985Z,40
2019-01-30T05:35:53.966Z,40
2019-01-30T05:36:53.942Z,40
2019-01-30T05:37:56.230Z,40
2019-01-30T05:38:53.915Z,40
2019-01-30T05:39:53.888Z,40
2019-01-30T05:40:53.942Z,40
2019-01-30T05:41:53.853Z,40
2019-01-30T05:42:53.842Z,40
2019-01-30T05:43:53.821Z,40
2019-01-30T05:44:53.800Z,40
2019-01-30T05:45:53.786Z,40
2019-01-30T05:46:53.767Z,40
2019-01-30T05:47:53.743Z,40
2019-01-30T05:48:53.726Z,40
2019-01-30T05:49:53.706Z,40
2019-01-30T05:50:53.689Z,40
2019-01-30T05:51:53.668Z,40
2019-01-30T05:52:53.809Z,40
2019-01-30T05:53:53.643Z,40
2019-01-30T05:54:53.618Z,40
2019-01-30T05:55:53.371Z,40
2019-01-30T05:56:53.340Z,40
2019-01-30T05:57:53.573Z,40
2019-01-30T05:58:53.545Z,40
2019-01-30T05:59:53.538Z,40
2019-01-30T06:00:53.501Z,40
2019-01-30T06:01:53.515Z,40
2019-01-30T06:02:53.465Z,40
2019-01-30T06:03:53.449Z,40
2019-01-30T06:04:53.447Z,40
2019-01-30T06:05:53.416Z,44
2019-01-30T06:06:53.388Z,44
2019-01-30T06:07:53.129Z,44
2019-01-30T06:08:53.354Z,40
2019-01-30T06:09:53.341Z,40
2019-01-30T06:10:53.313Z,40
2019-01-30T06:11:53.299Z,40
2019-01-30T06:12:53.308Z,44
2019-01-30T06:13:53.261Z,44
2019-01-30T06:14:53.243Z,40
2019-01-30T06:15:53.228Z,44
2019-01-30T06:16:53.206Z,44
2019-01-30T06:17:52.946Z,44
2019-01-30T06:18:53.168Z,48
2019-01-30T06:19:53.148Z,48
2019-01-30T06:20:53.135Z,48
2019-01-30T06:21:53.129Z,48
2019-01-30T06:22:53.101Z,48
2019-01-30T06:23:53.098Z,48
2019-01-30T06:24:53.073Z,52
2019-01-30T06:25:53.067Z,56
2019-01-30T06:26:53.034Z,60
2019-01-30T06:27:53.027Z,60
2019-01-30T06:28:53.001Z,64
2019-01-30T06:29:52.966Z,64
2019-01-30T06:30:52.953Z,72
2019-01-30T06:31:52.935Z,80
2019-01-30T06:32:52.913Z,84
2019-01-30T06:33:52.893Z,92
2019-01-30T06:34:52.898Z,100
2019-01-30T06:35:52.859Z,112
2019-01-30T06:36:52.846Z,124
2019-01-30T06:37:52.828Z,132
2019-01-30T06:38:52.803Z,148
2019-01-30T06:39:52.795Z,164
2019-01-30T06:40:52.781Z,176
2019-01-30T06:41:52.746Z,192
2019-01-30T06:42:52.772Z,208
2019-01-30T06:43:52.705Z,224
2019-01-30T06:44:52.755Z,236
2019-01-30T06:45:52.671Z,252
2019-01-30T06:46:52.655Z,268
2019-01-30T06:47:52.652Z,288
2019-01-30T06:48:52.614Z,308
2019-01-30T06:49:52.598Z,336
2019-01-30T06:50:52.581Z,360
2019-01-30T06:51:52.566Z,388
2019-01-30T06:52:52.545Z,416
2019-01-30T06:53:52.523Z,444
2019-01-30T06:54:52.604Z,484
2019-01-30T06:55:52.489Z,516
2019-01-30T06:56:52.478Z,556
2019-01-30T06:57:52.213Z,592
2019-01-30T06:58:52.431Z,636
2019-01-30T06:59:52.480Z,680
2019-01-30T07:00:55.157Z,732
2019-01-30T07:01:52.372Z,776
2019-01-30T07:02:52.356Z,824
2019-01-30T07:03:52.340Z,876
2019-01-30T07:04:52.324Z,920
2019-01-30T07:05:52.304Z,972
2019-01-30T07:06:52.285Z,1028
2019-01-30T07:07:52.376Z,1088
2019-01-30T07:08:52.250Z,1144
2019-01-30T07:09:52.230Z,1200
2019-01-30T07:10:51.974Z,1252
2019-01-30T07:11:52.194Z,1308
2019-01-30T07:12:52.173Z,1364
2019-01-30T07:13:52.157Z,1428
2019-01-30T07:14:52.140Z,1488
2019-01-30T07:15:52.127Z,1552
2019-01-30T07:16:52.165Z,1612
2019-01-30T07:17:51.852Z,1672
2019-01-30T07:18:52.062Z,1740
2019-01-30T07:19:52.055Z,1824
2019-01-30T07:20:52.041Z,1904
2019-01-30T07:21:51.772Z,1920
2019-01-30T07:22:51.999Z,1988
2019-01-30T07:23:51.975Z,2036
2019-01-30T07:24:51.955Z,2088
2019-01-30T07:25:51.940Z,2144
2019-01-30T07:26:51.946Z,2172
2019-01-30T07:27:52.014Z,2308
2019-01-30T07:28:51.887Z,2388
2019-01-30T07:29:51.876Z,2380
2019-01-30T07:30:51.848Z,2544
2019-01-30T07:31:51.832Z,2392
2019-01-30T07:32:51.815Z,2436
2019-01-30T07:33:51.795Z,2532
2019-01-30T07:34:51.791Z,2552
2019-01-30T07:35:51.790Z,2632
2019-01-30T07:36:51.743Z,2636
2019-01-30T07:37:51.724Z,2716
2019-01-30T07:38:51.712Z,2792
2019-01-30T07:39:51.694Z,2864
2019-01-30T07:40:51.677Z,2932
2019-01-30T07:41:51.656Z,2992
2019-01-30T07:42:51.643Z,3068
2019-01-30T07:43:51.625Z,3140
2019-01-30T07:44:57.863Z,3208
2019-01-30T07:45:51.593Z,3252
2019-01-30T07:46:51.592Z,3320
2019-01-30T07:47:51.551Z,3368
2019-01-30T07:48:51.538Z,3436
2019-01-30T07:49:51.515Z,3508
2019-01-30T07:50:51.498Z,3580
2019-01-30T07:51:51.245Z,3644
2019-01-30T07:52:51.468Z,3704
2019-01-30T07:53:51.447Z,3772
2019-01-30T07:54:51.429Z,3856
2019-01-30T07:55:51.413Z,3916
2019-01-30T07:56:51.412Z,3932
2019-01-30T07:57:51.433Z,3948
2019-01-30T07:58:51.362Z,3980
2019-01-30T07:59:51.347Z,4032
2019-01-30T08:00:51.328Z,4080
2019-01-30T08:01:51.317Z,4136
2019-01-30T08:03:00.059Z,4196
2019-01-30T08:03:51.282Z,4248
2019-01-30T08:04:51.263Z,4308
2019-01-30T08:05:51.244Z,4340
2019-01-30T08:06:51.234Z,4400
2019-01-30T08:07:51.226Z,4484
2019-01-30T08:08:52.134Z,4536
2019-01-30T08:09:51.175Z,4596
2019-01-30T08:10:51.159Z,4672
2019-01-30T08:11:51.142Z,4752
2019-01-30T08:12:51.139Z,4772
2019-01-30T08:13:51.109Z,4768
2019-01-30T08:14:51.094Z,4792
2019-01-30T08:15:51.084Z,4848
2019-01-30T08:16:52.840Z,4900
2019-01-30T08:17:51.046Z,4944
2019-01-30T08:18:51.022Z,4984
2019-01-30T08:19:51.996Z,5028
2019-01-30T08:20:50.994Z,5048
2019-01-30T08:21:50.989Z,5084
2019-01-30T08:22:51.208Z,5120
2019-01-30T08:23:50.980Z,5156
2019-01-30T08:24:51.523Z,5196
2019-01-30T08:25:51.277Z,5244
2019-01-30T08:26:51.475Z,5308
2019-01-30T08:27:51.498Z,5380
2019-01-30T08:28:51.552Z,5448
2019-01-30T08:29:51.158Z,5500
2019-01-30T08:30:51.621Z,5556
2019-01-30T08:31:51.344Z,5620
2019-01-30T08:32:51.387Z,5636
2019-01-30T08:33:50.778Z,5648
2019-01-30T08:34:50.762Z,5660
2019-01-30T08:35:50.746Z,5676
2019-01-30T08:36:50.747Z,5724
2019-01-30T08:37:53.212Z,5764
2019-01-30T08:38:51.565Z,5788
2019-01-30T08:39:50.695Z,5828
2019-01-30T08:40:50.680Z,5852
2019-01-30T08:41:50.670Z,5860
2019-01-30T08:42:52.191Z,5868
2019-01-30T08:43:50.615Z,5860
2019-01-30T08:44:54.164Z,5896
2019-01-30T08:45:50.603Z,5928
2019-01-30T08:46:50.641Z,5952
2019-01-30T08:47:50.557Z,5948
2019-01-30T08:48:50.607Z,5960
2019-01-30T08:49:50.526Z,5968
2019-01-30T08:50:50.511Z,5988
2019-01-30T08:51:50.497Z,5988
2019-01-30T08:52:50.474Z,5992
2019-01-30T08:53:50.461Z,5960
2019-01-30T08:54:50.439Z,5928
2019-01-30T08:55:50.425Z,5916
2019-01-30T08:56:59.744Z,5932
2019-01-30T08:57:50.403Z,5936
2019-01-30T08:58:50.398Z,5924
2019-01-30T08:59:50.482Z,5896
2019-01-30T09:00:50.363Z,5864
2019-01-30T09:01:50.375Z,5812
2019-01-30T09:02:50.328Z,5816
2019-01-30T09:03:50.426Z,5788
2019-01-30T09:04:50.290Z,5784
2019-01-30T09:05:50.274Z,5772
2019-01-30T09:06:50.254Z,5756
2019-01-30T09:07:51.717Z,5776
2019-01-30T09:08:50.231Z,5800
2019-01-30T09:09:50.204Z,5816
2019-01-30T09:10:50.293Z,5824
2019-01-30T09:11:50.182Z,5788
2019-01-30T09:12:50.168Z,5772
2019-01-30T09:13:50.142Z,5780
2019-01-30T09:14:50.181Z,5776
2019-01-30T09:15:50.117Z,5792
2019-01-30T09:16:50.100Z,5800
2019-01-30T09:17:50.086Z,5796
2019-01-30T09:18:50.069Z,5772
2019-01-30T09:19:50.053Z,5736
2019-01-30T09:20:50.047Z,5668
2019-01-30T09:21:50.024Z,5632
2019-01-30T09:22:50.005Z,5576
2019-01-30T09:23:50.081Z,5528
2019-01-30T09:24:50.048Z,5500
2019-01-30T09:25:49.962Z,5472
2019-01-30T09:26:49.945Z,5456
2019-01-30T09:27:49.932Z,5416
2019-01-30T09:28:49.910Z,5380
2019-01-30T09:29:49.939Z,5356
2019-01-30T09:30:49.886Z,5336
2019-01-30T09:31:49.869Z,5308
2019-01-30T09:32:49.885Z,5256
2019-01-30T09:33:49.851Z,5220
2019-01-30T09:34:49.824Z,5204
2019-01-30T09:35:49.888Z,5256
2019-01-30T09:36:49.863Z,5284
2019-01-30T09:37:49.852Z,5344
2019-01-30T09:38:49.757Z,5320
2019-01-30T09:39:51.081Z,5316
2019-01-30T09:40:49.801Z,5360
2019-01-30T09:41:49.784Z,5396
2019-01-30T09:42:50.540Z,5408
2019-01-30T09:43:49.837Z,5356
2019-01-30T09:44:49.722Z,5296
2019-01-30T09:45:49.711Z,5292
2019-01-30T09:46:49.690Z,5268
2019-01-30T09:47:49.663Z,5196
2019-01-30T09:48:49.661Z,5184
2019-01-30T09:49:49.648Z,5200
2019-01-30T09:50:49.575Z,5172
2019-01-30T09:51:49.602Z,5232
2019-01-30T09:52:49.583Z,5212
2019-01-30T09:53:49.555Z,5176
2019-01-30T09:54:49.536Z,5176
2019-01-30T09:55:49.358Z,5200
2019-01-30T09:56:49.542Z,5160
2019-01-30T09:57:49.226Z,5140
2019-01-30T09:58:49.451Z,5180
2019-01-30T09:59:49.441Z,5168
2019-01-30T10:00:49.432Z,5172
2019-01-30T10:01:49.408Z,5188
2019-01-30T10:02:49.395Z,5180
2019-01-30T10:03:49.382Z,5136
2019-01-30T10:04:49.480Z,5092
2019-01-30T10:05:49.368Z,5048
2019-01-30T10:06:49.342Z,5008
2019-01-30T10:07:49.314Z,4960
2019-01-30T10:08:49.305Z,4932
2019-01-30T10:09:49.282Z,4880
2019-01-30T10:10:49.274Z,4780
2019-01-30T10:11:49.262Z,4672
2019-01-30T10:12:49.248Z,4608
2019-01-30T10:13:49.229Z,4556
2019-01-30T10:14:49.213Z,4516
2019-01-30T10:15:49.195Z,4480
2019-01-30T10:16:49.177Z,4408
2019-01-30T10:17:49.201Z,4352
2019-01-30T10:18:49.152Z,4332
2019-01-30T10:19:49.132Z,4300
2019-01-30T10:20:49.119Z,4268
2019-01-30T10:21:48.962Z,4256
2019-01-30T10:22:49.090Z,4236
2019-01-30T10:23:49.082Z,4236
2019-01-30T10:24:50.521Z,4236
2019-01-30T10:25:49.050Z,4268
2019-01-30T10:26:49.028Z,4304
2019-01-30T10:27:49.009Z,4320
2019-01-30T10:28:48.997Z,4368
2019-01-30T10:29:48.981Z,4420
2019-01-30T10:30:48.975Z,4480
2019-01-30T10:31:48.948Z,4496
2019-01-30T10:32:48.943Z,4460
2019-01-30T10:33:53.924Z,4472
2019-01-30T10:34:48.967Z,4504
2019-01-30T10:35:48.980Z,4532
2019-01-30T10:36:48.876Z,4560
2019-01-30T10:37:48.959Z,4576
2019-01-30T10:38:48.857Z,4628
2019-01-30T10:39:48.837Z,4664
2019-01-30T10:40:48.823Z,4692
2019-01-30T10:41:48.802Z,4692
2019-01-30T10:42:48.785Z,4672
2019-01-30T10:43:48.815Z,4668
2019-01-30T10:44:48.757Z,4632
2019-01-30T10:45:48.743Z,4600
2019-01-30T10:46:48.720Z,4556
2019-01-30T10:47:48.709Z,4504
2019-01-30T10:48:48.701Z,4460
2019-01-30T10:49:48.529Z,4444
2019-01-30T10:50:48.739Z,4416
2019-01-30T10:51:48.656Z,4368
2019-01-30T10:52:48.633Z,4336
2019-01-30T10:53:50.541Z,4304
2019-01-30T10:54:48.724Z,4280
2019-01-30T10:55:48.593Z,4252
2019-01-30T10:56:48.653Z,4212
2019-01-30T10:57:48.564Z,4188
2019-01-30T10:58:48.544Z,4196
2019-01-30T10:59:48.534Z,4196
2019-01-30T11:00:48.519Z,4196
2019-01-30T11:01:48.506Z,4204
2019-01-30T11:02:51.148Z,4204
2019-01-30T11:03:59.347Z,4232
2019-01-30T11:04:48.455Z,4252
2019-01-30T11:05:49.245Z,4280
2019-01-30T11:06:48.429Z,4284
2019-01-30T11:07:48.414Z,4276
2019-01-30T11:08:48.398Z,4284
2019-01-30T11:09:48.382Z,4324
2019-01-30T11:10:50.730Z,4372
2019-01-30T11:11:48.361Z,4428
2019-01-30T11:12:48.346Z,4484
2019-01-30T11:13:48.327Z,4548
2019-01-30T11:14:48.082Z,4600
2019-01-30T11:15:48.323Z,4652
2019-01-30T11:16:48.283Z,4672
2019-01-30T11:17:48.266Z,4708
2019-01-30T11:18:48.254Z,4744
2019-01-30T11:19:50.268Z,4808
2019-01-30T11:20:48.229Z,4856
2019-01-30T11:21:48.211Z,4924
2019-01-30T11:22:48.281Z,4992
2019-01-30T11:23:48.182Z,5068
2019-01-30T11:24:48.161Z,5140
2019-01-30T11:25:48.150Z,5216
2019-01-30T11:26:48.132Z,5284
2019-01-30T11:27:48.118Z,5348
2019-01-30T11:28:48.103Z,5432
2019-01-30T11:29:48.088Z,5524
2019-01-30T11:30:48.087Z,5600
2019-01-30T11:31:48.064Z,5656
2019-01-30T11:32:48.045Z,5660
2019-01-30T11:33:48.037Z,5684
2019-01-30T11:34:48.015Z,5708
2019-01-30T11:35:48.018Z,5724
2019-01-30T11:36:47.985Z,5788
2019-01-30T11:37:47.976Z,5916
2019-01-30T11:38:47.958Z,6064
2019-01-30T11:39:47.944Z,6136
2019-01-30T11:40:47.930Z,6172
2019-01-30T11:41:47.919Z,6196
2019-01-30T11:42:47.902Z,6196
2019-01-30T11:43:47.898Z,6164
2019-01-30T11:44:47.871Z,6132
2019-01-30T11:45:47.856Z,6108
2019-01-30T11:46:47.843Z,6060
2019-01-30T11:47:47.830Z,6012
2019-01-30T11:48:56.135Z,5944
2019-01-30T11:49:47.798Z,5876
2019-01-30T11:50:47.787Z,5820
2019-01-30T11:51:47.773Z,5760
2019-01-30T11:52:47.776Z,5704
2019-01-30T11:53:47.740Z,5668
2019-01-30T11:54:47.729Z,5648
2019-01-30T11:55:47.714Z,5624
2019-01-30T11:56:47.704Z,5588
2019-01-30T11:57:47.690Z,5584
2019-01-30T11:58:47.671Z,5608
2019-01-30T11:59:47.658Z,5612
2019-01-30T12:00:47.639Z,5592
2019-01-30T12:01:47.708Z,5576
2019-01-30T12:02:54.922Z,5544
2019-01-30T12:03:47.601Z,5500
2019-01-30T12:04:47.584Z,5468
2019-01-30T12:05:47.571Z,5440
2019-01-30T12:06:47.555Z,5396
2019-01-30T12:07:47.543Z,5336
2019-01-30T12:08:47.533Z,5272
2019-01-30T12:09:47.521Z,5216
2019-01-30T12:10:47.499Z,5208
2019-01-30T12:11:47.480Z,5196
2019-01-30T12:12:47.489Z,5180
2019-01-30T12:13:47.456Z,5180
2019-01-30T12:14:47.438Z,5180
2019-01-30T12:15:47.439Z,5172
2019-01-30T12:16:47.417Z,5176
2019-01-30T12:17:47.403Z,5180
2019-01-30T12:18:47.387Z,5192
2019-01-30T12:19:47.367Z,5208
2019-01-30T12:20:47.114Z,5236
2019-01-30T12:21:47.347Z,5268
2019-01-30T12:22:47.335Z,5300
2019-01-30T12:23:47.306Z,5324
2019-01-30T12:24:47.293Z,5364
2019-01-30T12:25:47.281Z,5408
2019-01-30T12:26:47.126Z,5448
2019-01-30T12:27:47.259Z,5496
2019-01-30T12:28:47.238Z,5532
2019-01-30T12:29:47.224Z,5548
2019-01-30T12:30:47.211Z,5552
2019-01-30T12:31:47.192Z,5552
2019-01-30T12:32:47.178Z,5552
2019-01-30T12:33:47.164Z,5580
2019-01-30T12:34:47.149Z,5616
2019-01-30T12:35:47.133Z,5664
2019-01-30T12:36:47.121Z,5716
2019-01-30T12:37:47.106Z,5792
2019-01-30T12:38:47.089Z,5864
2019-01-30T12:39:47.078Z,5940
2019-01-30T12:40:47.074Z,6024
2019-01-30T12:41:47.068Z,6104
2019-01-30T12:42:47.037Z,6180
2019-01-30T12:43:47.861Z,6248
2019-01-30T12:44:47.007Z,6304
2019-01-30T12:45:46.995Z,6352
2019-01-30T12:46:46.973Z,6396
2019-01-30T12:47:46.959Z,6420
2019-01-30T12:48:48.845Z,6420
2019-01-30T12:49:46.942Z,6416
2019-01-30T12:50:46.922Z,6428
2019-01-30T12:51:46.917Z,6452
2019-01-30T12:52:46.902Z,6468
2019-01-30T12:53:46.877Z,6500
2019-01-30T12:54:46.865Z,6532
2019-01-30T12:55:46.848Z,6556
2019-01-30T12:56:46.833Z,6572
2019-01-30T12:57:46.821Z,6592
2019-01-30T12:58:46.810Z,6616
2019-01-30T12:59:46.792Z,6648
2019-01-30T13:00:46.544Z,6688
2019-01-30T13:01:46.533Z,6728
2019-01-30T13:02:46.749Z,6764
2019-01-30T13:03:46.735Z,6772
2019-01-30T13:04:46.718Z,6796
2019-01-30T13:05:46.723Z,6808
2019-01-30T13:06:46.690Z,6812
2019-01-30T13:07:46.686Z,6804
2019-01-30T13:08:46.663Z,6776
2019-01-30T13:09:46.650Z,6744
2019-01-30T13:10:46.636Z,6716
2019-01-30T13:11:46.618Z,6680
2019-01-30T13:12:46.609Z,6660
2019-01-30T13:13:46.592Z,6644
2019-01-30T13:14:46.580Z,6636
2019-01-30T13:15:46.559Z,6628
2019-01-30T13:16:46.558Z,6644
2019-01-30T13:17:49.226Z,6672
2019-01-30T13:18:46.525Z,6708
2019-01-30T13:19:46.506Z,6752
2019-01-30T13:20:46.496Z,6792
2019-01-30T13:21:46.481Z,6820
2019-01-30T13:22:46.463Z,6836
2019-01-30T13:23:46.448Z,6816
2019-01-30T13:24:46.434Z,6788
2019-01-30T13:25:46.419Z,6732
2019-01-30T13:26:46.406Z,6652
2019-01-30T13:27:46.390Z,6564
2019-01-30T13:28:46.378Z,6472
2019-01-30T13:29:46.362Z,6384
2019-01-30T13:30:48.404Z,6296
2019-01-30T13:31:46.333Z,6224
2019-01-30T13:32:46.323Z,6148
2019-01-30T13:33:46.306Z,6088
2019-01-30T13:34:55.803Z,6020
2019-01-30T13:35:46.278Z,5972
2019-01-30T13:36:47.330Z,5908
2019-01-30T13:37:46.251Z,5852
2019-01-30T13:38:46.318Z,5768
2019-01-30T13:39:46.223Z,5696
2019-01-30T13:40:46.214Z,5620
2019-01-30T13:41:46.194Z,5548
2019-01-30T13:42:46.178Z,5476
2019-01-30T13:43:46.162Z,5408
2019-01-30T13:44:46.153Z,5340